Time;durP1;ratioP1;P1;durP2;ratioP2;P2;SDS_P1;SDS_P2;PMS_P1;PMS_P2;Temp;Humidity;BMP_temperature;BMP_pressure;BME280_temperature;BME280_humidity;BME280_pressure;Samples;Min_cycle;Max_cycle;Signal;HPM_P1;HPM_P2
2022/12/05 00:01:39;;;;;;;36.23;20.27;;;4.60;99.90;;;;;;4993323;28;20183;-85
2022/12/05 00:04:14;;;;;;;29.48;17.30;;;4.50;99.90;;;;;;4982969;28;20183;-85
2022/12/05 00:06:50;;;;;;;35.97;19.27;;;4.50;99.90;;;;;;4995463;28;20176;-85
2022/12/05 00:09:16;;;;;;;38.35;19.02;;;4.50;99.90;;;;;;4975000;28;20218;-85
2022/12/05 00:11:44;;;;;;;36.10;20.23;;;4.50;99.90;;;;;;4980964;28;20187;-85
2022/12/05 00:14:20;;;;;;;37.30;19.30;;;4.50;99.90;;;;;;4980191;28;20281;-84
2022/12/05 00:16:46;;;;;;;33.13;18.50;;;4.50;99.90;;;;;;4976615;28;20175;-85
2022/12/05 00:19:17;;;;;;;35.70;19.73;;;4.50;99.90;;;;;;4975254;28;20211;-84
2022/12/05 00:21:48;;;;;;;31.48;18.42;;;4.50;1.00;;;;;;4992860;28;20199;-84
2022/12/05 00:24:20;;;;;;;34.85;18.90;;;4.50;1.00;;;;;;4982484;28;20191;-84
2022/12/05 00:26:46;;;;;;;32.00;18.85;;;4.60;99.90;;;;;;4971350;28;20191;-85
2022/12/05 00:29:12;;;;;;;35.37;19.90;;;4.60;99.90;;;;;;4993993;28;20717;-85
2022/12/05 00:31:37;;;;;;;32.20;17.60;;;4.60;99.90;;;;;;4993219;28;20427;-85
2022/12/05 00:34:03;;;;;;;35.93;19.90;;;4.60;99.90;;;;;;4993586;28;20179;-85
2022/12/05 00:36:31;;;;;;;32.77;19.17;;;4.60;99.90;;;;;;4993491;28;20267;-84
2022/12/05 00:38:59;;;;;;;34.78;20.40;;;4.60;99.90;;;;;;4994551;28;20218;-84
2022/12/05 00:41:26;;;;;;;34.83;20.08;;;4.70;99.90;;;;;;4992377;28;20251;-84
2022/12/05 00:43:52;;;;;;;39.25;19.17;;;4.70;99.90;;;;;;4991725;28;20191;-85
2022/12/05 00:46:21;;;;;;;33.75;18.50;;;4.70;99.90;;;;;;4995201;28;20215;-84
2022/12/05 00:48:47;;;;;;;31.33;18.00;;;4.70;99.90;;;;;;4991739;28;20216;-84
2022/12/05 00:51:23;;;;;;;32.20;19.30;;;4.70;99.90;;;;;;4996278;28;20194;-84
2022/12/05 00:53:48;;;;;;;38.58;21.33;;;4.70;99.90;;;;;;4990515;28;20438;-85
2022/12/05 00:56:18;;;;;;;35.70;20.63;;;4.70;99.90;;;;;;4996550;28;20216;-85
2022/12/05 00:58:44;;;;;;;32.15;19.17;;;4.60;99.90;;;;;;4994011;28;20509;-85
2022/12/05 01:01:13;;;;;;;35.97;19.27;;;4.70;99.90;;;;;;4978091;28;20661;-84
2022/12/05 01:03:39;;;;;;;35.10;19.80;;;4.70;99.90;;;;;;4995845;28;20435;-85
2022/12/05 01:06:05;;;;;;;38.10;19.45;;;4.70;99.90;;;;;;4994676;28;20246;-85
2022/12/05 01:08:32;;;;;;;37.43;19.73;;;4.70;99.90;;;;;;4992624;28;20254;-84
2022/12/05 01:10:58;;;;;;;31.52;18.90;;;4.70;99.90;;;;;;4975795;28;20438;-85
2022/12/05 01:13:25;;;;;;;36.53;19.57;;;4.70;99.90;;;;;;4998583;28;20192;-84
2022/12/05 01:15:50;;;;;;;34.28;20.55;;;4.60;99.90;;;;;;4992741;28;20497;-84
2022/12/05 01:18:17;;;;;;;30.67;18.50;;;4.60;99.90;;;;;;4991107;28;20545;-84
2022/12/05 01:20:43;;;;;;;37.25;18.27;;;4.70;99.90;;;;;;4975972;28;20478;-84
2022/12/05 01:23:09;;;;;;;31.50;17.40;;;4.60;99.90;;;;;;4992149;28;20663;-83
2022/12/05 01:25:39;;;;;;;31.80;19.03;;;4.60;99.90;;;;;;4991365;28;20295;-84
2022/12/05 01:28:04;;;;;;;37.10;20.17;;;4.60;99.90;;;;;;4993844;28;20614;-85
2022/12/05 01:30:30;;;;;;;35.70;19.60;;;4.60;99.90;;;;;;4978054;28;20260;-84
2022/12/05 01:32:55;;;;;;;33.20;19.83;;;4.60;99.90;;;;;;4995913;28;20604;-84
2022/12/05 01:35:21;;;;;;;30.03;19.57;;;4.60;99.90;;;;;;4976670;28;20785;-84
2022/12/05 01:37:46;;;;;;;32.50;18.53;;;4.60;99.90;;;;;;4980180;28;20187;-85
2022/12/05 01:40:12;;;;;;;35.47;18.67;;;4.60;99.90;;;;;;4991576;28;20183;-84
2022/12/05 01:42:38;;;;;;;40.00;19.80;;;4.60;99.90;;;;;;4993262;28;20266;-84
2022/12/05 01:45:16;;;;;;;37.78;18.55;;;4.60;99.90;;;;;;4993173;28;20203;-84
2022/12/05 01:47:43;;;;;;;34.53;19.80;;;4.60;99.90;;;;;;4995603;28;20215;-83
2022/12/05 01:50:09;;;;;;;30.17;18.92;;;4.60;99.90;;;;;;4994968;28;20218;-84
2022/12/05 01:52:35;;;;;;;37.95;19.60;;;4.60;99.90;;;;;;4994241;28;20258;-85
2022/12/05 01:55:07;;;;;;;32.75;19.40;;;4.60;99.90;;;;;;4998713;28;20208;-85
2022/12/05 01:57:33;;;;;;;30.92;19.83;;;4.60;99.90;;;;;;4997333;28;20744;-84
2022/12/05 02:00:10;;;;;;;40.07;19.90;;;4.60;99.90;;;;;;4983241;28;20190;-85
2022/12/05 02:02:37;;;;;;;37.15;19.48;;;4.70;99.90;;;;;;4988604;28;20202;-85
2022/12/05 02:05:28;;;;;;;35.05;21.02;;;4.60;99.90;;;;;;4997550;28;20211;-85
2022/12/05 02:07:56;;;;;;;32.65;20.60;;;4.70;99.90;;;;;;4995165;28;20197;-85
2022/12/05 02:10:22;;;;;;;37.30;20.73;;;4.60;99.90;;;;;;4996621;28;20208;-85
2022/12/05 02:12:50;;;;;;;41.63;21.05;;;4.60;99.90;;;;;;4999590;28;20199;-85
2022/12/05 02:15:51;;;;;;;37.60;20.95;;;4.60;99.90;;;;;;4998114;28;20196;-85
2022/12/05 02:18:28;;;;;;;34.40;19.02;;;4.60;99.90;;;;;;4995885;28;20303;-85
2022/12/05 02:21:00;;;;;;;39.80;20.63;;;4.60;99.90;;;;;;4982332;28;20190;-85
2022/12/05 02:23:40;;;;;;;38.25;21.98;;;4.50;99.90;;;;;;4998110;28;20223;-85
2022/12/05 02:26:06;;;;;;;41.67;21.75;;;4.50;1.00;;;;;;4995914;28;20214;-85
2022/12/05 02:28:53;;;;;;;33.77;20.13;;;4.60;1.00;;;;;;4998469;28;20745;-85
2022/12/05 02:31:34;;;;;;;37.15;20.30;;;4.60;1.00;;;;;;4995237;28;20192;-85
2022/12/05 02:34:12;;;;;;;30.98;18.45;;;4.70;1.00;;;;;;4980835;28;20230;-85
2022/12/05 02:37:08;;;;;;;36.40;20.55;;;4.70;99.90;;;;;;4999112;28;20213;-85
2022/12/05 02:40:09;;;;;;;38.40;20.33;;;4.70;99.90;;;;;;4981533;28;20183;-85
2022/12/05 02:42:48;;;;;;;41.33;18.95;;;4.70;1.00;;;;;;4981562;28;20247;-85
2022/12/05 02:45:15;;;;;;;37.10;20.83;;;4.70;99.90;;;;;;4996689;28;20215;-85
2022/12/05 02:47:46;;;;;;;36.78;19.45;;;4.70;99.90;;;;;;4978985;28;20179;-84
2022/12/05 02:50:16;;;;;;;39.78;20.10;;;4.70;99.90;;;;;;5001110;28;20221;-85
2022/12/05 02:52:43;;;;;;;37.33;21.77;;;4.70;99.90;;;;;;4998748;28;20183;-85
2022/12/05 02:55:10;;;;;;;37.85;20.27;;;4.70;99.90;;;;;;4998415;28;20218;-85
2022/12/05 02:57:37;;;;;;;34.72;19.02;;;4.70;99.90;;;;;;4997439;28;20270;-85
2022/12/05 03:00:04;;;;;;;34.53;19.40;;;4.70;99.90;;;;;;4979874;28;20270;-85
2022/12/05 03:02:31;;;;;;;36.22;19.70;;;4.80;99.90;;;;;;4998065;28;20674;-85
2022/12/05 03:05:07;;;;;;;38.55;20.75;;;4.70;99.90;;;;;;4997975;28;20231;-83
2022/12/05 03:07:35;;;;;;;33.50;20.00;;;4.70;99.90;;;;;;4998177;28;20186;-85
2022/12/05 03:10:06;;;;;;;34.30;18.15;;;4.70;99.90;;;;;;4994062;28;20701;-85
2022/12/05 03:12:41;;;;;;;31.67;18.98;;;4.70;99.90;;;;;;4997650;28;20199;-85
2022/12/05 03:15:13;;;;;;;37.15;21.00;;;4.70;99.90;;;;;;4996867;28;20203;-85
2022/12/05 03:17:46;;;;;;;39.67;20.10;;;4.60;1.00;;;;;;5001927;28;20245;-84
2022/12/05 03:20:28;;;;;;;41.00;19.88;;;4.70;1.00;;;;;;4998651;28;20750;-85
2022/12/05 03:23:04;;;;;;;36.55;21.00;;;4.70;1.00;;;;;;4995436;28;20183;-85
2022/12/05 03:25:39;;;;;;;29.33;17.52;;;4.80;1.00;;;;;;4996146;28;20219;-85
2022/12/05 03:28:10;;;;;;;33.65;19.70;;;4.80;1.00;;;;;;5004276;28;20689;-85
2022/12/05 03:30:37;;;;;;;34.55;20.50;;;4.80;1.00;;;;;;4995149;28;20187;-85
2022/12/05 03:33:11;;;;;;;37.95;20.65;;;4.80;1.00;;;;;;4984813;28;20269;-85
2022/12/05 03:35:57;;;;;;;33.38;20.00;;;4.80;1.00;;;;;;4996695;28;20223;-85
2022/12/05 03:38:33;;;;;;;32.25;19.30;;;4.80;1.00;;;;;;4989521;28;20188;-85
2022/12/05 03:41:24;;;;;;;34.05;19.45;;;4.80;1.00;;;;;;4998531;28;20247;-85
2022/12/05 03:44:12;;;;;;;32.72;18.85;;;4.80;1.00;;;;;;4997545;28;20180;-84
2022/12/05 03:47:05;;;;;;;37.08;19.83;;;4.80;99.90;;;;;;4996468;28;20179;-84
2022/12/05 03:49:39;;;;;;;38.60;21.63;;;4.80;99.90;;;;;;5013346;28;20195;-84
2022/12/05 03:52:08;;;;;;;43.85;22.65;;;4.80;99.90;;;;;;5014306;28;20199;-86
2022/12/05 03:54:42;;;;;;;39.13;21.52;;;4.80;1.00;;;;;;4972798;28;20211;-84
2022/12/05 03:57:16;;;;;;;40.38;22.52;;;4.80;1.00;;;;;;4993134;28;20237;-84
2022/12/05 03:59:56;;;;;;;33.08;19.42;;;4.80;1.00;;;;;;4994624;28;20238;-85
2022/12/05 04:02:29;;;;;;;35.45;20.48;;;4.70;99.90;;;;;;4982916;28;20218;-84
2022/12/05 04:05:05;;;;;;;40.55;21.25;;;4.70;1.00;;;;;;4998208;28;20234;-85
2022/12/05 04:07:34;;;;;;;37.47;22.02;;;4.70;1.00;;;;;;4997553;28;20187;-84
2022/12/05 04:10:05;;;;;;;35.33;20.15;;;4.60;99.90;;;;;;4996085;28;20225;-85
2022/12/05 04:12:34;;;;;;;28.60;19.27;;;4.60;1.00;;;;;;4979590;28;20828;-85
2022/12/05 04:15:06;;;;;;;34.35;20.13;;;4.60;99.90;;;;;;4975371;28;20324;-85
2022/12/05 04:17:48;;;;;;;40.65;21.73;;;4.60;1.00;;;;;;4978189;28;20184;-85
2022/12/05 04:23:21;;;;;;;37.05;21.10;;;4.50;99.90;;;;;;4996030;28;20186;-82
2022/12/05 04:26:16;;;;;;;35.28;20.80;;;4.50;99.90;;;;;;4994316;28;20774;-85
2022/12/05 04:28:55;;;;;;;36.55;21.25;;;4.50;99.90;;;;;;4994209;28;20548;-84
2022/12/05 04:31:27;;;;;;;46.30;27.90;;;4.40;99.90;;;;;;4975770;28;20188;-83
2022/12/05 04:33:56;;;;;;;58.50;28.73;;;4.40;99.90;;;;;;4997170;28;20202;-85
2022/12/05 04:36:31;;;;;;;47.53;26.67;;;4.30;99.90;;;;;;4996067;28;20215;-84
2022/12/05 04:39:08;;;;;;;56.47;27.13;;;4.20;99.90;;;;;;4992358;28;20286;-85
2022/12/05 04:41:39;;;;;;;44.70;24.00;;;4.20;1.00;;;;;;4994923;28;20180;-84
2022/12/05 04:44:09;;;;;;;38.72;22.40;;;4.20;1.00;;;;;;4994598;28;20195;-85
2022/12/05 04:46:37;;;;;;;37.47;20.23;;;4.20;1.00;;;;;;4995750;28;20184;-84
2022/12/05 04:49:07;;;;;;;41.13;22.08;;;4.30;1.00;;;;;;4996863;28;20293;-84
2022/12/05 04:51:34;;;;;;;36.28;21.25;;;4.30;1.00;;;;;;4979843;28;20186;-84
2022/12/05 04:54:08;;;;;;;33.78;19.27;;;4.40;1.00;;;;;;4994813;28;20203;-84
2022/12/05 04:56:36;;;;;;;35.95;21.33;;;4.40;1.00;;;;;;4992135;28;20175;-85
2022/12/05 04:59:02;;;;;;;37.40;20.55;;;4.40;99.90;;;;;;4995957;28;20652;-85
2022/12/05 05:01:40;;;;;;;33.70;21.57;;;4.30;99.90;;;;;;4995998;28;20243;-84
2022/12/05 05:04:11;;;;;;;33.78;21.70;;;4.30;99.90;;;;;;4995654;28;20191;-85
2022/12/05 05:06:38;;;;;;;36.17;20.08;;;4.30;99.90;;;;;;4978066;28;20695;-84
2022/12/05 05:09:04;;;;;;;38.40;19.60;;;4.30;99.90;;;;;;4995994;28;20294;-84
2022/12/05 05:11:35;;;;;;;32.33;19.10;;;4.30;1.00;;;;;;4992085;28;20226;-85
2022/12/05 05:14:01;;;;;;;32.03;20.70;;;4.30;99.90;;;;;;4995358;28;20441;-84
2022/12/05 05:16:31;;;;;;;37.55;20.65;;;4.30;99.90;;;;;;4994647;28;20184;-84
2022/12/05 05:18:59;;;;;;;37.55;19.52;;;4.20;99.90;;;;;;4995836;28;20192;-85
2022/12/05 05:21:30;;;;;;;38.08;20.20;;;4.20;99.90;;;;;;4994396;28;20624;-84
2022/12/05 05:23:57;;;;;;;33.45;19.92;;;4.20;99.90;;;;;;4978331;28;20196;-85
2022/12/05 05:26:24;;;;;;;33.17;19.48;;;4.30;99.90;;;;;;4977064;28;20203;-85
2022/12/05 05:28:50;;;;;;;37.15;19.73;;;4.30;99.90;;;;;;4994003;28;20235;-85
2022/12/05 05:31:18;;;;;;;37.10;21.00;;;4.30;99.90;;;;;;4996340;28;20588;-83
2022/12/05 05:33:47;;;;;;;33.35;19.52;;;4.30;99.90;;;;;;4995333;28;20674;-84
2022/12/05 05:36:13;;;;;;;33.65;20.52;;;4.30;99.90;;;;;;4976401;28;20195;-84
2022/12/05 05:38:41;;;;;;;34.30;20.05;;;4.30;99.90;;;;;;4995855;28;20215;-85
2022/12/05 05:41:12;;;;;;;30.75;18.35;;;4.30;99.90;;;;;;4995405;28;20191;-85
2022/12/05 05:43:39;;;;;;;32.80;19.05;;;4.20;85.30;;;;;;4995222;28;20274;-85
2022/12/05 05:46:04;;;;;;;31.02;18.73;;;4.20;86.40;;;;;;4974763;28;20746;-85
2022/12/05 05:48:30;;;;;;;35.17;19.50;;;4.20;99.90;;;;;;4989652;28;20207;-85
2022/12/05 05:50:58;;;;;;;31.20;17.67;;;4.20;99.90;;;;;;4999819;28;20239;-85
2022/12/05 05:53:24;;;;;;;32.72;19.45;;;4.20;99.90;;;;;;4995769;28;20185;-85
2022/12/05 05:55:49;;;;;;;33.43;19.33;;;4.20;1.00;;;;;;4982149;28;20702;-85
2022/12/05 05:58:15;;;;;;;33.77;20.43;;;4.10;1.00;;;;;;4999061;28;20191;-85
2022/12/05 06:00:40;;;;;;;32.03;19.13;;;4.10;1.00;;;;;;4998066;28;20191;-84
2022/12/05 06:03:07;;;;;;;32.90;20.70;;;4.10;1.00;;;;;;4998704;28;20554;-85
2022/12/05 06:05:32;;;;;;;33.25;20.08;;;4.10;27.50;;;;;;4999441;28;20254;-85
2022/12/05 06:07:58;;;;;;;31.50;18.17;;;4.10;89.80;;;;;;5000812;28;20555;-85
2022/12/05 06:10:24;;;;;;;30.73;18.87;;;4.10;49.20;;;;;;4995612;28;20648;-84
2022/12/05 06:12:52;;;;;;;39.73;19.17;;;4.10;1.00;;;;;;4983001;28;20610;-85
2022/12/05 06:15:18;;;;;;;26.65;16.98;;;4.10;1.00;;;;;;4998026;28;20286;-86
2022/12/05 06:17:43;;;;;;;33.90;19.50;;;4.10;1.00;;;;;;4999385;28;20215;-84
2022/12/05 06:20:09;;;;;;;34.10;20.07;;;4.10;1.00;;;;;;4999104;28;20714;-85
2022/12/05 06:22:34;;;;;;;26.60;18.00;;;4.10;1.00;;;;;;4996290;28;20187;-84
2022/12/05 06:25:00;;;;;;;28.43;18.60;;;4.10;1.00;;;;;;4995285;28;20531;-84
2022/12/05 06:27:28;;;;;;;30.00;17.40;;;4.10;1.00;;;;;;4980932;28;20187;-84
2022/12/05 06:29:54;;;;;;;31.52;19.35;;;4.10;1.00;;;;;;4999009;28;20710;-84
2022/12/05 06:32:19;;;;;;;28.87;19.00;;;4.10;1.00;;;;;;4998490;28;20195;-85
2022/12/05 06:34:45;;;;;;;35.30;21.23;;;4.00;1.00;;;;;;4997871;28;20629;-84
2022/12/05 06:37:10;;;;;;;30.90;19.30;;;4.00;1.00;;;;;;4999245;28;20188;-85
2022/12/05 06:39:36;;;;;;;32.77;19.40;;;4.00;1.00;;;;;;4997273;28;20184;-83
2022/12/05 06:42:01;;;;;;;37.60;21.57;;;4.00;1.00;;;;;;4998415;28;20260;-85
2022/12/05 06:44:27;;;;;;;33.00;18.60;;;4.00;1.00;;;;;;4998265;28;20259;-84
2022/12/05 06:46:53;;;;;;;31.63;19.05;;;4.00;1.00;;;;;;4982082;28;20218;-84
2022/12/05 06:49:20;;;;;;;28.90;17.63;;;4.10;1.00;;;;;;4999854;28;20216;-85
2022/12/05 06:51:46;;;;;;;33.00;20.08;;;4.10;1.00;;;;;;4999920;28;20535;-85
2022/12/05 06:54:15;;;;;;;35.27;18.83;;;4.10;1.00;;;;;;4981646;28;20215;-85
2022/12/05 06:56:40;;;;;;;28.98;18.08;;;4.10;1.00;;;;;;4990405;28;20184;-85
2022/12/05 06:59:06;;;;;;;33.70;19.27;;;4.20;1.00;;;;;;4996237;28;20198;-85
2022/12/05 07:01:37;;;;;;;32.57;19.53;;;4.20;1.00;;;;;;4979839;28;20184;-85
2022/12/05 07:04:23;;;;;;;27.98;17.95;;;4.20;1.00;;;;;;4996830;28;20183;-85
2022/12/05 07:06:49;;;;;;;31.73;18.98;;;4.20;1.00;;;;;;4998733;28;20211;-85
2022/12/05 07:09:17;;;;;;;32.80;18.50;;;4.20;1.00;;;;;;4997173;28;20279;-85
2022/12/05 07:11:48;;;;;;;29.02;17.90;;;4.20;1.00;;;;;;4992119;28;20179;-85
2022/12/05 07:14:14;;;;;;;31.52;17.63;;;4.30;1.00;;;;;;4989667;28;20191;-84
2022/12/05 07:16:39;;;;;;;34.20;19.60;;;4.30;1.00;;;;;;4980099;28;20194;-85
2022/12/05 07:19:05;;;;;;;29.67;19.57;;;4.40;1.00;;;;;;4996010;28;20185;-86
2022/12/05 07:21:30;;;;;;;32.20;19.10;;;4.50;1.00;;;;;;4996698;28;20184;-84
2022/12/05 07:23:56;;;;;;;36.33;20.53;;;4.60;99.90;;;;;;4995308;28;20524;-85
2022/12/05 07:26:23;;;;;;;34.70;19.67;;;4.60;99.90;;;;;;4999094;28;20215;-85
2022/12/05 07:28:50;;;;;;;35.08;18.85;;;4.60;99.90;;;;;;4999494;28;20214;-85
2022/12/05 07:31:18;;;;;;;32.58;18.63;;;4.70;9.10;;;;;;4979433;28;20187;-85
2022/12/05 07:33:44;;;;;;;36.08;18.63;;;4.70;1.00;;;;;;5011265;28;20665;-85
2022/12/05 07:36:12;;;;;;;30.00;18.20;;;4.70;1.00;;;;;;4988107;28;20223;-86
2022/12/05 07:38:38;;;;;;;28.15;17.67;;;4.70;1.00;;;;;;5006363;28;20442;-84
2022/12/05 07:41:18;;;;;;;31.58;19.02;;;4.70;99.90;;;;;;5003659;28;20275;-85
2022/12/05 07:43:44;;;;;;;31.05;18.90;;;4.70;99.90;;;;;;5003892;28;20189;-85
2022/12/05 07:46:10;;;;;;;30.00;18.73;;;4.80;99.90;;;;;;5001186;28;20212;-86
2022/12/05 07:48:36;;;;;;;30.20;17.45;;;4.70;44.70;;;;;;5003503;28;20311;-86
2022/12/05 07:51:03;;;;;;;30.83;19.60;;;4.70;1.00;;;;;;5014374;28;20172;-87
2022/12/05 07:53:30;;;;;;;30.75;18.90;;;4.70;1.00;;;;;;5013308;28;20207;-85
2022/12/05 07:55:59;;;;;;;29.25;18.90;;;4.70;1.00;;;;;;5009406;28;20218;-85
2022/12/05 07:58:24;;;;;;;28.85;17.83;;;4.70;1.00;;;;;;4983260;28;20183;-85
2022/12/05 08:00:50;;;;;;;31.67;19.50;;;4.70;1.00;;;;;;4996015;28;20196;-84
2022/12/05 08:03:15;;;;;;;28.20;17.40;;;4.70;99.90;;;;;;4996868;28;20241;-85
2022/12/05 08:05:41;;;;;;;30.33;19.13;;;4.70;99.90;;;;;;4997418;28;20227;-85
2022/12/05 08:08:06;;;;;;;25.83;17.23;;;4.80;99.90;;;;;;4996699;28;20191;-85
2022/12/05 08:10:33;;;;;;;26.93;18.60;;;4.80;99.90;;;;;;4996754;28;20219;-84
2022/12/05 08:12:58;;;;;;;25.98;17.50;;;4.80;99.90;;;;;;4996659;28;20195;-84
2022/12/05 08:15:24;;;;;;;28.53;16.17;;;4.90;99.90;;;;;;4996430;28;20225;-84
2022/12/05 08:17:49;;;;;;;24.80;17.00;;;4.90;99.90;;;;;;4993142;28;20188;-84
2022/12/05 08:20:15;;;;;;;25.10;16.90;;;4.90;1.00;;;;;;4996269;28;20192;-84
2022/12/05 08:22:40;;;;;;;26.67;17.00;;;4.90;1.00;;;;;;4994678;28;20183;-84
2022/12/05 08:25:06;;;;;;;29.40;16.60;;;4.90;1.00;;;;;;4978561;28;20295;-85
2022/12/05 08:27:32;;;;;;;25.90;16.80;;;4.90;1.00;;;;;;4997664;28;20190;-85
2022/12/05 08:29:57;;;;;;;29.17;16.37;;;4.90;1.00;;;;;;4977407;28;20493;-86
2022/12/05 08:32:23;;;;;;;30.57;18.63;;;5.00;1.00;;;;;;4993379;28;20181;-85
2022/12/05 08:34:48;;;;;;;30.10;17.93;;;5.00;1.00;;;;;;4979420;28;20210;-86
2022/12/05 08:37:14;;;;;;;31.57;16.87;;;5.00;1.00;;;;;;4991410;28;20188;-87
2022/12/05 08:39:39;;;;;;;37.10;18.40;;;5.10;99.90;;;;;;4998052;28;20194;-86
2022/12/05 08:42:05;;;;;;;29.93;17.80;;;5.10;99.90;;;;;;4992498;28;20175;-85
2022/12/05 08:44:30;;;;;;;30.57;17.93;;;5.10;99.90;;;;;;4995067;28;20216;-86
2022/12/05 08:46:56;;;;;;;31.37;17.97;;;5.20;99.90;;;;;;4995855;28;20183;-86
2022/12/05 08:49:21;;;;;;;36.13;19.17;;;5.20;95.70;;;;;;4978995;28;20199;-86
2022/12/05 08:51:47;;;;;;;31.03;17.70;;;5.20;1.00;;;;;;4993490;28;20793;-85
2022/12/05 08:54:13;;;;;;;27.37;17.93;;;5.20;1.00;;;;;;4991114;28;20188;-86
2022/12/05 08:56:38;;;;;;;27.93;17.30;;;5.30;1.00;;;;;;4976176;28;20202;-85
2022/12/05 08:59:04;;;;;;;31.13;19.57;;;5.30;1.00;;;;;;4999048;28;20180;-86
2022/12/05 09:01:30;;;;;;;32.93;19.67;;;5.30;1.00;;;;;;5009551;28;20176;-86
2022/12/05 09:04:01;;;;;;;34.67;18.58;;;5.40;1.00;;;;;;5005411;28;20938;-86
2022/12/05 09:06:28;;;;;;;31.00;18.95;;;5.50;1.00;;;;;;4996531;28;20195;-87
2022/12/05 09:08:56;;;;;;;29.02;18.27;;;5.50;1.00;;;;;;4993599;28;20232;-86
2022/12/05 09:11:25;;;;;;;29.38;18.63;;;5.60;99.90;;;;;;4987998;28;20187;-86
2022/12/05 09:13:53;;;;;;;31.75;19.08;;;5.50;99.90;;;;;;4984691;28;20256;-86
2022/12/05 09:16:22;;;;;;;26.02;18.90;;;5.60;99.90;;;;;;4989499;28;20293;-87
2022/12/05 09:18:49;;;;;;;31.40;18.80;;;5.60;99.90;;;;;;5006723;28;20217;-86
2022/12/05 09:21:17;;;;;;;33.80;18.55;;;5.60;99.90;;;;;;5013307;28;20190;-87
2022/12/05 09:23:43;;;;;;;30.08;17.80;;;5.70;99.90;;;;;;4965742;28;20187;-86
2022/12/05 09:26:12;;;;;;;29.35;18.05;;;5.80;81.00;;;;;;5004135;28;20223;-86
2022/12/05 09:28:38;;;;;;;29.13;18.15;;;5.80;1.00;;;;;;5003540;28;20228;-87
2022/12/05 09:31:07;;;;;;;29.00;19.13;;;5.90;1.00;;;;;;4972999;28;20184;-87
2022/12/05 09:33:34;;;;;;;32.10;19.60;;;5.90;1.00;;;;;;4993576;28;20250;-87
2022/12/05 09:36:05;;;;;;;30.33;18.55;;;6.00;1.00;;;;;;4973480;28;20197;-86
2022/12/05 09:38:31;;;;;;;37.40;19.63;;;6.10;1.00;;;;;;4981854;28;20184;-86
2022/12/05 09:41:16;;;;;;;30.30;19.52;;;6.20;1.00;;;;;;4983400;28;20196;-86
2022/12/05 09:44:01;;;;;;;26.38;18.65;;;6.30;99.90;;;;;;4993480;28;20194;-85
2022/12/05 09:46:37;;;;;;;27.95;16.90;;;6.40;99.90;;;;;;4989734;28;20180;-86
2022/12/05 09:49:04;;;;;;;31.70;19.27;;;6.40;99.90;;;;;;4989613;28;20207;-86
2022/12/05 09:51:31;;;;;;;29.85;18.25;;;6.40;99.90;;;;;;4989189;28;20187;-86
2022/12/05 09:53:56;;;;;;;28.08;18.85;;;6.50;99.90;;;;;;4989547;28;22624;-86
2022/12/05 09:56:28;;;;;;;31.90;21.33;;;6.50;17.90;;;;;;4970247;28;20209;-87
2022/12/05 09:58:55;;;;;;;34.97;21.73;;;6.60;6.50;;;;;;4991327;28;20554;-87
2022/12/05 10:01:48;;;;;;;36.25;22.40;;;6.60;1.00;;;;;;4995808;28;20238;-87
2022/12/05 10:04:19;;;;;;;36.30;22.77;;;6.70;1.00;;;;;;4993925;28;20230;-87
2022/12/05 10:07:16;;;;;;;33.10;21.08;;;6.70;1.00;;;;;;4990582;28;20659;-88
2022/12/05 10:10:25;;;;;;;34.80;22.30;;;6.70;1.00;;;;;;4993928;28;20204;-87
2022/12/05 10:13:36;;;;;;;35.67;19.45;;;6.70;1.00;;;;;;4991486;28;20187;-87
2022/12/05 10:16:11;;;;;;;31.27;21.23;;;6.60;1.00;;;;;;4990592;28;20192;-86
2022/12/05 10:18:40;;;;;;;35.30;22.48;;;6.60;1.00;;;;;;4991470;28;20186;-86
2022/12/05 10:21:10;;;;;;;35.40;22.88;;;6.50;1.00;;;;;;4991277;28;20200;-85
2022/12/05 10:23:53;;;;;;;37.90;23.50;;;6.50;99.90;;;;;;4988659;28;20203;-87
2022/12/05 10:26:21;;;;;;;35.38;21.90;;;6.50;99.90;;;;;;4995553;28;20211;-89
2022/12/05 10:28:54;;;;;;;42.95;23.25;;;6.40;99.90;;;;;;4995324;28;20200;-86
2022/12/05 10:31:26;;;;;;;33.20;22.75;;;6.40;99.90;;;;;;4992514;28;20237;-87
2022/12/05 10:34:08;;;;;;;34.55;22.88;;;6.40;99.90;;;;;;4994344;28;20644;-87
2022/12/05 10:36:34;;;;;;;34.20;21.48;;;6.40;99.90;;;;;;4977351;28;20295;-86
2022/12/05 10:39:00;;;;;;;31.03;20.67;;;6.40;99.90;;;;;;4996586;28;20222;-87
2022/12/05 10:41:27;;;;;;;36.07;22.10;;;6.40;99.90;;;;;;4986636;28;20191;-86
2022/12/05 10:43:53;;;;;;;34.20;24.20;;;6.40;1.00;;;;;;4991038;28;20183;-86
2022/12/05 10:46:19;;;;;;;38.13;20.70;;;6.40;1.00;;;;;;4988422;28;20215;-87
2022/12/05 10:48:44;;;;;;;32.33;19.47;;;6.40;1.00;;;;;;4983910;28;20218;-86
2022/12/05 10:51:15;;;;;;;27.07;18.07;;;6.40;1.00;;;;;;4973795;28;20172;-87
2022/12/05 10:53:50;;;;;;;25.67;17.27;;;6.40;1.00;;;;;;4982849;28;20226;-86
2022/12/05 10:56:41;;;;;;;23.45;17.45;;;6.40;1.00;;;;;;4993352;28;20206;-86
2022/12/05 10:59:09;;;;;;;22.00;15.85;;;6.50;1.00;;;;;;4992550;28;20198;-86
2022/12/05 11:01:39;;;;;;;21.77;16.20;;;6.40;1.00;;;;;;4995948;28;20187;-87
2022/12/05 11:04:23;;;;;;;21.55;16.13;;;6.40;1.00;;;;;;4996826;28;20187;-87
2022/12/05 11:06:59;;;;;;;24.15;17.02;;;6.40;1.00;;;;;;4978008;28;20663;-86
2022/12/05 11:09:35;;;;;;;28.33;18.83;;;6.40;1.00;;;;;;4991369;28;20216;-87
2022/12/05 11:12:20;;;;;;;24.15;18.23;;;6.40;1.00;;;;;;4990136;28;20221;-88
2022/12/05 11:15:03;;;;;;;26.88;18.05;;;6.50;1.00;;;;;;4993698;28;20238;-87
2022/12/05 11:17:37;;;;;;;27.13;18.40;;;6.50;1.00;;;;;;4995814;28;20187;-86
2022/12/05 11:20:23;;;;;;;25.23;18.08;;;6.50;1.00;;;;;;4996098;28;20199;-87
2022/12/05 11:22:55;;;;;;;28.42;18.08;;;6.50;1.00;;;;;;4995232;28;20199;-87
2022/12/05 11:25:33;;;;;;;25.50;17.85;;;6.50;1.00;;;;;;4986828;28;20271;-86
2022/12/05 11:28:19;;;;;;;25.48;17.33;;;6.50;1.00;;;;;;4987072;28;20191;-86
2022/12/05 11:31:11;;;;;;;21.13;15.38;;;6.50;1.00;;;;;;4974836;28;20315;-87
2022/12/05 11:33:37;;;;;;;25.30;17.25;;;6.40;1.00;;;;;;4972009;28;20901;-87
2022/12/05 11:36:19;;;;;;;23.33;17.60;;;6.40;1.00;;;;;;4992546;28;20220;-88
2022/12/05 11:38:45;;;;;;;23.67;17.65;;;6.40;1.00;;;;;;4992177;28;20280;-83
2022/12/05 11:41:38;;;;;;;22.88;17.17;;;6.30;1.00;;;;;;4996216;28;20183;-87
2022/12/05 11:44:28;;;;;;;22.40;17.08;;;6.20;1.00;;;;;;4985673;28;20180;-86
2022/12/05 11:47:11;;;;;;;25.00;16.77;;;6.20;1.00;;;;;;4980851;28;20223;-86
2022/12/05 11:50:00;;;;;;;25.23;17.65;;;6.20;1.00;;;;;;4991734;28;20281;-88
2022/12/05 11:52:50;;;;;;;23.85;16.98;;;6.20;1.00;;;;;;5007428;28;20156;-88
2022/12/05 11:55:20;;;;;;;25.45;17.30;;;6.30;1.00;;;;;;5008257;28;20199;-85
2022/12/05 11:58:01;;;;;;;28.02;16.85;;;6.30;1.00;;;;;;5000433;28;20584;-85
2022/12/05 12:00:43;;;;;;;20.67;15.23;;;6.40;1.00;;;;;;4991374;28;20262;-85
2022/12/05 12:03:30;;;;;;;25.27;16.48;;;6.40;1.00;;;;;;4969749;28;20191;-86
2022/12/05 12:05:56;;;;;;;19.02;13.77;;;6.50;1.00;;;;;;4993523;28;20730;-86
2022/12/05 12:08:28;;;;;;;19.83;14.40;;;6.50;1.00;;;;;;4984485;28;20271;-86
2022/12/05 12:11:21;;;;;;;22.17;15.85;;;6.50;1.00;;;;;;4984527;28;20876;-86
2022/12/05 12:14:02;;;;;;;20.85;17.00;;;6.50;1.00;;;;;;4987712;28;20263;-86
2022/12/05 12:16:33;;;;;;;20.40;14.38;;;6.40;1.00;;;;;;4991198;28;20182;-86
2022/12/05 12:19:29;;;;;;;21.90;16.83;;;6.40;1.00;;;;;;4986187;28;20204;-86
2022/12/05 12:22:20;;;;;;;20.40;15.48;;;6.30;1.00;;;;;;4993237;28;20751;-86
2022/12/05 12:24:56;;;;;;;21.77;15.30;;;6.20;1.00;;;;;;4993154;28;20286;-86
2022/12/05 12:28:05;;;;;;;20.92;14.90;;;6.20;1.00;;;;;;4994138;28;20733;-86
2022/12/05 12:30:52;;;;;;;20.80;16.55;;;6.20;1.00;;;;;;4973499;28;20638;-86
2022/12/05 12:33:54;;;;;;;23.77;16.75;;;6.20;1.00;;;;;;4993206;28;20658;-86
2022/12/05 12:36:38;;;;;;;19.27;15.27;;;6.10;1.00;;;;;;4991865;28;20203;-87
2022/12/05 12:39:06;;;;;;;18.80;14.35;;;6.10;1.00;;;;;;4994981;28;20186;-86
2022/12/05 12:41:42;;;;;;;17.50;13.80;;;6.00;1.00;;;;;;4996689;28;20270;-85
2022/12/05 12:44:30;;;;;;;19.00;14.45;;;6.00;1.00;;;;;;4994598;28;20184;-86
2022/12/05 12:47:00;;;;;;;19.52;14.80;;;5.90;1.00;;;;;;4980874;28;20196;-86
2022/12/05 12:49:54;;;;;;;22.02;16.13;;;5.90;1.00;;;;;;4995048;28;20203;-87
2022/12/05 12:52:23;;;;;;;24.50;15.55;;;5.90;1.00;;;;;;4992925;28;20211;-86
2022/12/05 12:54:51;;;;;;;22.80;16.35;;;5.80;1.00;;;;;;4997286;28;20281;-86
2022/12/05 12:57:35;;;;;;;21.75;16.63;;;5.80;24.80;;;;;;4974177;28;20187;-87
2022/12/05 13:00:20;;;;;;;20.80;15.65;;;5.80;88.00;;;;;;5000396;28;20258;-85
2022/12/05 13:03:08;;;;;;;21.70;15.98;;;5.80;78.00;;;;;;4983339;28;20302;-86
2022/12/05 13:05:47;;;;;;;21.73;15.90;;;5.80;82.00;;;;;;4988867;28;20638;-86
2022/12/05 13:08:36;;;;;;;19.58;15.25;;;5.70;92.80;;;;;;4990610;28;20187;-86